sensor_id;sensor_type;location;lat;lon;timestamp;P1;durP1;ratioP1;P2;durP2;ratioP2
33066;SDS011;19428;49.024;8.366;2022-08-05T00:01:21;2.20;;;2.20;;
33066;SDS011;19428;49.024;8.366;2022-08-05T00:03:48;1.92;;;1.92;;
33066;SDS011;19428;49.024;8.366;2022-08-05T00:06:14;2.42;;;2.42;;
33066;SDS011;19428;49.024;8.366;2022-08-05T00:08:40;2.35;;;2.25;;
33066;SDS011;19428;49.024;8.366;2022-08-05T00:11:12;1.90;;;1.90;;
33066;SDS011;19428;49.024;8.366;2022-08-05T00:13:39;2.55;;;2.55;;
33066;SDS011;19428;49.024;8.366;2022-08-05T00:16:07;2.40;;;2.40;;
33066;SDS011;19428;49.024;8.366;2022-08-05T00:18:34;2.60;;;2.60;;
33066;SDS011;19428;49.024;8.366;2022-08-05T00:21:04;2.67;;;2.67;;
33066;SDS011;19428;49.024;8.366;2022-08-05T00:23:30;2.65;;;2.65;;
33066;SDS011;19428;49.024;8.366;2022-08-05T00:25:55;2.72;;;2.65;;
33066;SDS011;19428;49.024;8.366;2022-08-05T00:28:21;2.83;;;2.83;;
33066;SDS011;19428;49.024;8.366;2022-08-05T00:30:47;3.08;;;3.08;;
33066;SDS011;19428;49.024;8.366;2022-08-05T00:33:12;2.67;;;2.67;;
33066;SDS011;19428;49.024;8.366;2022-08-05T00:35:40;2.47;;;2.47;;
33066;SDS011;19428;49.024;8.366;2022-08-05T00:38:05;2.50;;;2.50;;
33066;SDS011;19428;49.024;8.366;2022-08-05T00:40:31;1.92;;;1.92;;
33066;SDS011;19428;49.024;8.366;2022-08-05T00:42:59;3.22;;;3.03;;
33066;SDS011;19428;49.024;8.366;2022-08-05T00:45:26;1.70;;;1.70;;
33066;SDS011;19428;49.024;8.366;2022-08-05T00:47:52;2.30;;;2.30;;
33066;SDS011;19428;49.024;8.366;2022-08-05T00:50:18;2.10;;;2.00;;
33066;SDS011;19428;49.024;8.366;2022-08-05T00:52:43;1.75;;;1.75;;
33066;SDS011;19428;49.024;8.366;2022-08-05T00:55:09;1.85;;;1.85;;
33066;SDS011;19428;49.024;8.366;2022-08-05T00:57:36;1.88;;;1.88;;
33066;SDS011;19428;49.024;8.366;2022-08-05T01:00:02;1.80;;;1.80;;
33066;SDS011;19428;49.024;8.366;2022-08-05T01:02:29;1.92;;;1.92;;
33066;SDS011;19428;49.024;8.366;2022-08-05T01:04:54;2.05;;;2.05;;
33066;SDS011;19428;49.024;8.366;2022-08-05T01:07:20;2.08;;;2.08;;
33066;SDS011;19428;49.024;8.366;2022-08-05T01:09:45;2.17;;;2.17;;
33066;SDS011;19428;49.024;8.366;2022-08-05T01:12:12;2.50;;;2.50;;
33066;SDS011;19428;49.024;8.366;2022-08-05T01:14:46;2.33;;;2.33;;
33066;SDS011;19428;49.024;8.366;2022-08-05T01:17:15;2.25;;;2.25;;
33066;SDS011;19428;49.024;8.366;2022-08-05T01:22:50;2.75;;;2.75;;
33066;SDS011;19428;49.024;8.366;2022-08-05T01:27:47;2.90;;;2.90;;
33066;SDS011;19428;49.024;8.366;2022-08-05T01:30:36;2.42;;;2.42;;
33066;SDS011;19428;49.024;8.366;2022-08-05T01:33:06;27.95;;;4.35;;
33066;SDS011;19428;49.024;8.366;2022-08-05T01:35:33;2.40;;;2.40;;
33066;SDS011;19428;49.024;8.366;2022-08-05T01:38:03;2.53;;;2.53;;
33066;SDS011;19428;49.024;8.366;2022-08-05T01:40:30;2.53;;;2.53;;
33066;SDS011;19428;49.024;8.366;2022-08-05T01:42:58;2.85;;;2.85;;
33066;SDS011;19428;49.024;8.366;2022-08-05T01:45:26;3.35;;;3.33;;
33066;SDS011;19428;49.024;8.366;2022-08-05T01:47:54;3.60;;;3.50;;
33066;SDS011;19428;49.024;8.366;2022-08-05T01:50:25;2.92;;;2.92;;
33066;SDS011;19428;49.024;8.366;2022-08-05T01:52:54;2.97;;;2.97;;
33066;SDS011;19428;49.024;8.366;2022-08-05T01:55:23;3.60;;;3.53;;
33066;SDS011;19428;49.024;8.366;2022-08-05T01:57:53;3.20;;;3.20;;
33066;SDS011;19428;49.024;8.366;2022-08-05T02:00:21;3.25;;;3.25;;
33066;SDS011;19428;49.024;8.366;2022-08-05T02:02:54;3.97;;;3.88;;
33066;SDS011;19428;49.024;8.366;2022-08-05T02:05:32;4.13;;;4.03;;
33066;SDS011;19428;49.024;8.366;2022-08-05T02:08:00;3.78;;;3.67;;
33066;SDS011;19428;49.024;8.366;2022-08-05T02:10:26;4.00;;;3.90;;
33066;SDS011;19428;49.024;8.366;2022-08-05T02:13:00;3.95;;;3.85;;
33066;SDS011;19428;49.024;8.366;2022-08-05T02:15:35;4.07;;;3.97;;
33066;SDS011;19428;49.024;8.366;2022-08-05T02:20:45;4.50;;;4.40;;
33066;SDS011;19428;49.024;8.366;2022-08-05T02:23:16;4.97;;;4.88;;
33066;SDS011;19428;49.024;8.366;2022-08-05T02:25:45;5.60;;;5.40;;
33066;SDS011;19428;49.024;8.366;2022-08-05T02:28:13;4.28;;;4.18;;
33066;SDS011;19428;49.024;8.366;2022-08-05T02:30:47;4.72;;;4.63;;
33066;SDS011;19428;49.024;8.366;2022-08-05T02:33:19;4.07;;;3.97;;
33066;SDS011;19428;49.024;8.366;2022-08-05T02:35:45;3.55;;;3.45;;
33066;SDS011;19428;49.024;8.366;2022-08-05T02:38:11;4.00;;;3.90;;
33066;SDS011;19428;49.024;8.366;2022-08-05T02:40:39;4.40;;;4.30;;
33066;SDS011;19428;49.024;8.366;2022-08-05T02:43:07;4.25;;;4.15;;
33066;SDS011;19428;49.024;8.366;2022-08-05T02:45:34;4.13;;;4.03;;
33066;SDS011;19428;49.024;8.366;2022-08-05T02:48:02;4.40;;;4.30;;
33066;SDS011;19428;49.024;8.366;2022-08-05T02:50:28;5.07;;;4.97;;
33066;SDS011;19428;49.024;8.366;2022-08-05T02:52:54;4.72;;;4.63;;
33066;SDS011;19428;49.024;8.366;2022-08-05T02:55:21;5.78;;;5.68;;
33066;SDS011;19428;49.024;8.366;2022-08-05T02:57:47;7.13;;;6.93;;
33066;SDS011;19428;49.024;8.366;2022-08-05T03:00:15;6.43;;;6.28;;
33066;SDS011;19428;49.024;8.366;2022-08-05T03:02:41;6.90;;;6.70;;
33066;SDS011;19428;49.024;8.366;2022-08-05T03:05:10;7.53;;;7.32;;
33066;SDS011;19428;49.024;8.366;2022-08-05T03:07:37;7.80;;;7.60;;
33066;SDS011;19428;49.024;8.366;2022-08-05T03:10:04;8.52;;;8.32;;
33066;SDS011;19428;49.024;8.366;2022-08-05T03:12:31;8.32;;;8.13;;
33066;SDS011;19428;49.024;8.366;2022-08-05T03:14:58;8.93;;;8.68;;
33066;SDS011;19428;49.024;8.366;2022-08-05T03:17:24;9.02;;;8.80;;
33066;SDS011;19428;49.024;8.366;2022-08-05T03:19:49;10.57;;;10.07;;
33066;SDS011;19428;49.024;8.366;2022-08-05T03:22:15;8.27;;;8.07;;
33066;SDS011;19428;49.024;8.366;2022-08-05T03:24:41;8.02;;;7.75;;
33066;SDS011;19428;49.024;8.366;2022-08-05T03:27:09;6.90;;;6.72;;
33066;SDS011;19428;49.024;8.366;2022-08-05T03:29:35;7.25;;;7.05;;
33066;SDS011;19428;49.024;8.366;2022-08-05T03:32:01;8.20;;;7.80;;
33066;SDS011;19428;49.024;8.366;2022-08-05T03:34:28;15.07;;;14.07;;
33066;SDS011;19428;49.024;8.366;2022-08-05T03:36:54;13.02;;;12.63;;
33066;SDS011;19428;49.024;8.366;2022-08-05T03:39:20;11.35;;;11.02;;
33066;SDS011;19428;49.024;8.366;2022-08-05T03:41:46;12.23;;;11.82;;
33066;SDS011;19428;49.024;8.366;2022-08-05T03:44:11;12.70;;;12.25;;
33066;SDS011;19428;49.024;8.366;2022-08-05T03:46:37;12.68;;;12.27;;
33066;SDS011;19428;49.024;8.366;2022-08-05T03:49:02;13.60;;;12.30;;
33066;SDS011;19428;49.024;8.366;2022-08-05T03:51:33;14.93;;;14.43;;
33066;SDS011;19428;49.024;8.366;2022-08-05T03:59:03;21.20;;;20.45;;
33066;SDS011;19428;49.024;8.366;2022-08-05T04:01:32;22.73;;;21.90;;
33066;SDS011;19428;49.024;8.366;2022-08-05T04:04:03;23.73;;;22.88;;
33066;SDS011;19428;49.024;8.366;2022-08-05T04:06:31;24.92;;;24.02;;
33066;SDS011;19428;49.024;8.366;2022-08-05T04:08:58;26.58;;;25.60;;
33066;SDS011;19428;49.024;8.366;2022-08-05T04:11:24;27.63;;;26.60;;
33066;SDS011;19428;49.024;8.366;2022-08-05T04:13:50;25.30;;;24.38;;
33066;SDS011;19428;49.024;8.366;2022-08-05T04:16:16;24.60;;;23.70;;
33066;SDS011;19428;49.024;8.366;2022-08-05T04:18:43;24.17;;;23.30;;
33066;SDS011;19428;49.024;8.366;2022-08-05T04:21:10;24.13;;;23.25;;
33066;SDS011;19428;49.024;8.366;2022-08-05T04:23:36;22.88;;;22.05;;
33066;SDS011;19428;49.024;8.366;2022-08-05T04:26:03;24.38;;;23.48;;
33066;SDS011;19428;49.024;8.366;2022-08-05T04:28:29;30.00;;;21.02;;
33066;SDS011;19428;49.024;8.366;2022-08-05T04:30:55;21.10;;;20.35;;
33066;SDS011;19428;49.024;8.366;2022-08-05T04:33:20;17.95;;;17.33;;
33066;SDS011;19428;49.024;8.366;2022-08-05T04:35:46;20.27;;;19.58;;
33066;SDS011;19428;49.024;8.366;2022-08-05T04:38:11;19.60;;;18.90;;
33066;SDS011;19428;49.024;8.366;2022-08-05T04:40:38;17.27;;;16.70;;
33066;SDS011;19428;49.024;8.366;2022-08-05T04:43:05;19.92;;;18.13;;
33066;SDS011;19428;49.024;8.366;2022-08-05T04:45:31;18.58;;;17.98;;
33066;SDS011;19428;49.024;8.366;2022-08-05T04:48:07;15.07;;;14.57;;
33066;SDS011;19428;49.024;8.366;2022-08-05T04:50:37;13.65;;;13.23;;
33066;SDS011;19428;49.024;8.366;2022-08-05T04:53:04;12.90;;;12.10;;
33066;SDS011;19428;49.024;8.366;2022-08-05T04:55:30;13.23;;;12.82;;
33066;SDS011;19428;49.024;8.366;2022-08-05T04:57:55;11.15;;;10.75;;
33066;SDS011;19428;49.024;8.366;2022-08-05T05:00:21;9.93;;;9.63;;
33066;SDS011;19428;49.024;8.366;2022-08-05T05:02:47;8.05;;;7.85;;
33066;SDS011;19428;49.024;8.366;2022-08-05T05:05:13;7.50;;;7.30;;
33066;SDS011;19428;49.024;8.366;2022-08-05T05:07:38;6.25;;;6.15;;
33066;SDS011;19428;49.024;8.366;2022-08-05T05:10:04;5.63;;;5.53;;
33066;SDS011;19428;49.024;8.366;2022-08-05T05:12:30;4.50;;;4.40;;
33066;SDS011;19428;49.024;8.366;2022-08-05T05:14:56;3.30;;;3.30;;
33066;SDS011;19428;49.024;8.366;2022-08-05T05:17:22;2.70;;;2.70;;
33066;SDS011;19428;49.024;8.366;2022-08-05T05:19:48;2.78;;;2.78;;
33066;SDS011;19428;49.024;8.366;2022-08-05T05:22:13;2.65;;;2.65;;
33066;SDS011;19428;49.024;8.366;2022-08-05T05:24:39;2.55;;;2.55;;
33066;SDS011;19428;49.024;8.366;2022-08-05T05:27:04;2.78;;;2.78;;
33066;SDS011;19428;49.024;8.366;2022-08-05T05:29:30;2.65;;;2.65;;
33066;SDS011;19428;49.024;8.366;2022-08-05T05:31:56;2.60;;;2.60;;
33066;SDS011;19428;49.024;8.366;2022-08-05T05:34:21;2.30;;;2.30;;
33066;SDS011;19428;49.024;8.366;2022-08-05T05:36:47;2.30;;;2.30;;
33066;SDS011;19428;49.024;8.366;2022-08-05T05:39:13;2.17;;;2.17;;
33066;SDS011;19428;49.024;8.366;2022-08-05T05:41:38;2.25;;;2.25;;
33066;SDS011;19428;49.024;8.366;2022-08-05T05:44:04;2.20;;;2.20;;
33066;SDS011;19428;49.024;8.366;2022-08-05T05:46:30;2.08;;;2.08;;
33066;SDS011;19428;49.024;8.366;2022-08-05T05:48:55;1.95;;;1.95;;
33066;SDS011;19428;49.024;8.366;2022-08-05T05:51:21;2.08;;;2.08;;
33066;SDS011;19428;49.024;8.366;2022-08-05T05:53:48;2.03;;;2.03;;
33066;SDS011;19428;49.024;8.366;2022-08-05T05:56:15;1.95;;;1.95;;
33066;SDS011;19428;49.024;8.366;2022-08-05T05:58:41;2.20;;;2.20;;
33066;SDS011;19428;49.024;8.366;2022-08-05T06:01:06;2.15;;;2.15;;
33066;SDS011;19428;49.024;8.366;2022-08-05T06:03:32;2.22;;;2.22;;
33066;SDS011;19428;49.024;8.366;2022-08-05T06:05:58;2.55;;;2.55;;
33066;SDS011;19428;49.024;8.366;2022-08-05T06:08:23;2.45;;;2.45;;
33066;SDS011;19428;49.024;8.366;2022-08-05T06:10:49;2.42;;;2.42;;
33066;SDS011;19428;49.024;8.366;2022-08-05T06:13:14;2.75;;;2.75;;
33066;SDS011;19428;49.024;8.366;2022-08-05T06:15:40;2.78;;;2.78;;
33066;SDS011;19428;49.024;8.366;2022-08-05T06:18:05;2.53;;;2.53;;
33066;SDS011;19428;49.024;8.366;2022-08-05T06:20:31;2.50;;;2.50;;
33066;SDS011;19428;49.024;8.366;2022-08-05T06:22:57;2.60;;;2.60;;
33066;SDS011;19428;49.024;8.366;2022-08-05T06:25:22;2.17;;;2.17;;
33066;SDS011;19428;49.024;8.366;2022-08-05T06:27:48;2.47;;;2.47;;
33066;SDS011;19428;49.024;8.366;2022-08-05T06:30:13;2.65;;;2.65;;
33066;SDS011;19428;49.024;8.366;2022-08-05T06:32:40;2.47;;;2.47;;
33066;SDS011;19428;49.024;8.366;2022-08-05T06:35:09;2.63;;;2.53;;
33066;SDS011;19428;49.024;8.366;2022-08-05T06:37:34;2.45;;;2.45;;
33066;SDS011;19428;49.024;8.366;2022-08-05T06:40:00;2.53;;;2.53;;
33066;SDS011;19428;49.024;8.366;2022-08-05T06:42:25;2.22;;;2.22;;
33066;SDS011;19428;49.024;8.366;2022-08-05T06:44:51;2.35;;;2.35;;
33066;SDS011;19428;49.024;8.366;2022-08-05T06:47:16;1.90;;;1.90;;
33066;SDS011;19428;49.024;8.366;2022-08-05T06:49:42;2.17;;;2.17;;
33066;SDS011;19428;49.024;8.366;2022-08-05T06:52:08;2.28;;;2.28;;
33066;SDS011;19428;49.024;8.366;2022-08-05T06:54:33;2.17;;;2.17;;
33066;SDS011;19428;49.024;8.366;2022-08-05T06:56:59;2.22;;;2.22;;
33066;SDS011;19428;49.024;8.366;2022-08-05T06:59:24;2.17;;;2.17;;
33066;SDS011;19428;49.024;8.366;2022-08-05T07:01:50;2.40;;;2.40;;
33066;SDS011;19428;49.024;8.366;2022-08-05T07:04:15;1.80;;;1.80;;
33066;SDS011;19428;49.024;8.366;2022-08-05T07:06:41;2.00;;;2.00;;
33066;SDS011;19428;49.024;8.366;2022-08-05T07:09:06;1.77;;;1.77;;
33066;SDS011;19428;49.024;8.366;2022-08-05T07:11:32;1.80;;;1.80;;
33066;SDS011;19428;49.024;8.366;2022-08-05T07:13:58;2.20;;;2.20;;
33066;SDS011;19428;49.024;8.366;2022-08-05T07:16:43;1.92;;;1.92;;
33066;SDS011;19428;49.024;8.366;2022-08-05T07:19:15;2.08;;;2.08;;
33066;SDS011;19428;49.024;8.366;2022-08-05T07:21:41;1.60;;;1.60;;
33066;SDS011;19428;49.024;8.366;2022-08-05T07:24:08;1.60;;;1.60;;
33066;SDS011;19428;49.024;8.366;2022-08-05T07:26:33;1.80;;;1.80;;
33066;SDS011;19428;49.024;8.366;2022-08-05T07:28:59;1.80;;;1.80;;
33066;SDS011;19428;49.024;8.366;2022-08-05T07:31:24;1.70;;;1.70;;
33066;SDS011;19428;49.024;8.366;2022-08-05T07:33:50;1.70;;;1.70;;
33066;SDS011;19428;49.024;8.366;2022-08-05T07:36:15;1.70;;;1.70;;
33066;SDS011;19428;49.024;8.366;2022-08-05T07:38:41;1.60;;;1.60;;
33066;SDS011;19428;49.024;8.366;2022-08-05T07:41:07;2.78;;;2.67;;
33066;SDS011;19428;49.024;8.366;2022-08-05T07:43:36;1.70;;;1.70;;
33066;SDS011;19428;49.024;8.366;2022-08-05T07:46:01;3.33;;;3.15;;
33066;SDS011;19428;49.024;8.366;2022-08-05T07:48:28;1.60;;;1.60;;
33066;SDS011;19428;49.024;8.366;2022-08-05T07:50:53;1.80;;;1.80;;
33066;SDS011;19428;49.024;8.366;2022-08-05T07:53:19;2.03;;;2.03;;
33066;SDS011;19428;49.024;8.366;2022-08-05T07:55:44;2.70;;;2.60;;
33066;SDS011;19428;49.024;8.366;2022-08-05T07:58:10;3.08;;;2.95;;
33066;SDS011;19428;49.024;8.366;2022-08-05T08:00:36;3.03;;;2.92;;
33066;SDS011;19428;49.024;8.366;2022-08-05T08:03:01;2.53;;;2.42;;
33066;SDS011;19428;49.024;8.366;2022-08-05T08:05:27;4.65;;;4.15;;
33066;SDS011;19428;49.024;8.366;2022-08-05T08:07:53;2.38;;;2.38;;
33066;SDS011;19428;49.024;8.366;2022-08-05T08:10:21;3.40;;;3.20;;
33066;SDS011;19428;49.024;8.366;2022-08-05T08:12:47;2.25;;;2.25;;
33066;SDS011;19428;49.024;8.366;2022-08-05T08:15:14;2.17;;;2.17;;
33066;SDS011;19428;49.024;8.366;2022-08-05T08:17:39;2.30;;;2.30;;
33066;SDS011;19428;49.024;8.366;2022-08-05T08:20:05;2.10;;;2.10;;
33066;SDS011;19428;49.024;8.366;2022-08-05T08:22:31;2.10;;;2.10;;
33066;SDS011;19428;49.024;8.366;2022-08-05T08:24:57;1.90;;;1.90;;
33066;SDS011;19428;49.024;8.366;2022-08-05T08:27:24;2.05;;;2.05;;
33066;SDS011;19428;49.024;8.366;2022-08-05T08:29:49;1.90;;;1.90;;
33066;SDS011;19428;49.024;8.366;2022-08-05T08:32:15;1.80;;;1.80;;
33066;SDS011;19428;49.024;8.366;2022-08-05T08:34:41;2.22;;;2.22;;
33066;SDS011;19428;49.024;8.366;2022-08-05T08:37:07;1.60;;;1.60;;
33066;SDS011;19428;49.024;8.366;2022-08-05T08:39:33;2.22;;;2.20;;
33066;SDS011;19428;49.024;8.366;2022-08-05T08:41:59;1.60;;;1.60;;
33066;SDS011;19428;49.024;8.366;2022-08-05T08:44:28;1.40;;;1.40;;
33066;SDS011;19428;49.024;8.366;2022-08-05T08:46:55;1.27;;;1.27;;
33066;SDS011;19428;49.024;8.366;2022-08-05T08:49:20;1.00;;;1.00;;
33066;SDS011;19428;49.024;8.366;2022-08-05T08:51:48;1.15;;;1.15;;
33066;SDS011;19428;49.024;8.366;2022-08-05T08:54:22;1.00;;;1.00;;
33066;SDS011;19428;49.024;8.366;2022-08-05T08:56:49;1.65;;;1.52;;
33066;SDS011;19428;49.024;8.366;2022-08-05T08:59:16;1.00;;;1.00;;
33066;SDS011;19428;49.024;8.366;2022-08-05T09:01:43;1.00;;;1.00;;
33066;SDS011;19428;49.024;8.366;2022-08-05T09:04:10;0.90;;;0.90;;
33066;SDS011;19428;49.024;8.366;2022-08-05T09:06:37;0.80;;;0.80;;
33066;SDS011;19428;49.024;8.366;2022-08-05T09:09:03;1.02;;;1.02;;
33066;SDS011;19428;49.024;8.366;2022-08-05T09:11:29;0.90;;;0.90;;
33066;SDS011;19428;49.024;8.366;2022-08-05T09:13:57;0.80;;;0.80;;
33066;SDS011;19428;49.024;8.366;2022-08-05T09:16:24;0.80;;;0.80;;
33066;SDS011;19428;49.024;8.366;2022-08-05T09:18:50;1.80;;;1.70;;
33066;SDS011;19428;49.024;8.366;2022-08-05T09:21:16;0.98;;;0.98;;
33066;SDS011;19428;49.024;8.366;2022-08-05T09:23:43;0.80;;;0.80;;
33066;SDS011;19428;49.024;8.366;2022-08-05T09:26:10;0.82;;;0.82;;
33066;SDS011;19428;49.024;8.366;2022-08-05T09:28:40;0.90;;;0.90;;
33066;SDS011;19428;49.024;8.366;2022-08-05T09:31:06;0.98;;;0.98;;
33066;SDS011;19428;49.024;8.366;2022-08-05T09:33:51;1.08;;;1.08;;
33066;SDS011;19428;49.024;8.366;2022-08-05T09:36:18;0.95;;;0.95;;
33066;SDS011;19428;49.024;8.366;2022-08-05T09:38:54;1.27;;;1.27;;
33066;SDS011;19428;49.024;8.366;2022-08-05T09:41:24;1.13;;;1.13;;
33066;SDS011;19428;49.024;8.366;2022-08-05T09:43:50;1.05;;;1.05;;
33066;SDS011;19428;49.024;8.366;2022-08-05T09:48:51;1.10;;;1.10;;
33066;SDS011;19428;49.024;8.366;2022-08-05T09:51:26;0.95;;;0.95;;
33066;SDS011;19428;49.024;8.366;2022-08-05T09:53:56;1.00;;;1.00;;
33066;SDS011;19428;49.024;8.366;2022-08-05T09:56:26;1.75;;;1.75;;
33066;SDS011;19428;49.024;8.366;2022-08-05T09:59:00;1.60;;;1.60;;
33066;SDS011;19428;49.024;8.366;2022-08-05T10:01:30;1.65;;;1.65;;
33066;SDS011;19428;49.024;8.366;2022-08-05T10:06:30;1.15;;;1.15;;
33066;SDS011;19428;49.024;8.366;2022-08-05T10:09:08;1.20;;;1.20;;
33066;SDS011;19428;49.024;8.366;2022-08-05T10:11:34;1.00;;;1.00;;
33066;SDS011;19428;49.024;8.366;2022-08-05T10:14:01;0.90;;;0.90;;
33066;SDS011;19428;49.024;8.366;2022-08-05T10:19:11;1.10;;;1.10;;
33066;SDS011;19428;49.024;8.366;2022-08-05T10:21:38;0.90;;;0.90;;
33066;SDS011;19428;49.024;8.366;2022-08-05T10:24:03;1.00;;;1.00;;
33066;SDS011;19428;49.024;8.366;2022-08-05T10:26:30;0.90;;;0.90;;
33066;SDS011;19428;49.024;8.366;2022-08-05T10:28:57;1.30;;;1.30;;
33066;SDS011;19428;49.024;8.366;2022-08-05T10:31:22;1.10;;;1.10;;
33066;SDS011;19428;49.024;8.366;2022-08-05T10:33:48;1.10;;;1.10;;
33066;SDS011;19428;49.024;8.366;2022-08-05T10:36:14;1.00;;;1.00;;
33066;SDS011;19428;49.024;8.366;2022-08-05T10:38:41;2.08;;;1.33;;
33066;SDS011;19428;49.024;8.366;2022-08-05T10:41:26;0.93;;;0.93;;
33066;SDS011;19428;49.024;8.366;2022-08-05T10:46:41;0.90;;;0.90;;
33066;SDS011;19428;49.024;8.366;2022-08-05T10:49:10;1.30;;;1.30;;
33066;SDS011;19428;49.024;8.366;2022-08-05T10:51:45;1.20;;;1.20;;
33066;SDS011;19428;49.024;8.366;2022-08-05T10:54:13;1.63;;;1.63;;
33066;SDS011;19428;49.024;8.366;2022-08-05T10:56:43;2.38;;;2.28;;
33066;SDS011;19428;49.024;8.366;2022-08-05T10:59:11;1.42;;;1.42;;
33066;SDS011;19428;49.024;8.366;2022-08-05T11:01:49;1.52;;;1.52;;
33066;SDS011;19428;49.024;8.366;2022-08-05T11:04:32;1.92;;;1.92;;
33066;SDS011;19428;49.024;8.366;2022-08-05T11:07:11;2.40;;;2.30;;
33066;SDS011;19428;49.024;8.366;2022-08-05T11:09:43;1.30;;;1.30;;
33066;SDS011;19428;49.024;8.366;2022-08-05T11:15:06;1.15;;;1.15;;
33066;SDS011;19428;49.024;8.366;2022-08-05T11:17:44;1.10;;;1.10;;
33066;SDS011;19428;49.024;8.366;2022-08-05T11:22:58;0.80;;;0.80;;
33066;SDS011;19428;49.024;8.366;2022-08-05T11:27:57;0.80;;;0.80;;
33066;SDS011;19428;49.024;8.366;2022-08-05T11:33:25;0.80;;;0.80;;
33066;SDS011;19428;49.024;8.366;2022-08-05T11:35:56;0.50;;;0.50;;
33066;SDS011;19428;49.024;8.366;2022-08-05T11:43:43;0.60;;;0.60;;
33066;SDS011;19428;49.024;8.366;2022-08-05T11:46:17;0.70;;;0.70;;
33066;SDS011;19428;49.024;8.366;2022-08-05T11:48:49;0.50;;;0.50;;
33066;SDS011;19428;49.024;8.366;2022-08-05T11:51:15;0.50;;;0.50;;
33066;SDS011;19428;49.024;8.366;2022-08-05T11:53:41;0.57;;;0.57;;
33066;SDS011;19428;49.024;8.366;2022-08-05T11:56:07;0.60;;;0.60;;
33066;SDS011;19428;49.024;8.366;2022-08-05T11:58:34;0.95;;;0.95;;
33066;SDS011;19428;49.024;8.366;2022-08-05T12:01:05;0.50;;;0.50;;
33066;SDS011;19428;49.024;8.366;2022-08-05T12:03:46;0.90;;;0.90;;
33066;SDS011;19428;49.024;8.366;2022-08-05T12:06:15;0.50;;;0.50;;
33066;SDS011;19428;49.024;8.366;2022-08-05T12:08:42;0.60;;;0.60;;
33066;SDS011;19428;49.024;8.366;2022-08-05T12:11:10;0.50;;;0.50;;
33066;SDS011;19428;49.024;8.366;2022-08-05T12:13:57;0.90;;;0.90;;
33066;SDS011;19428;49.024;8.366;2022-08-05T12:16:27;0.47;;;0.47;;
33066;SDS011;19428;49.024;8.366;2022-08-05T12:18:56;0.40;;;0.40;;
33066;SDS011;19428;49.024;8.366;2022-08-05T12:26:32;0.50;;;0.50;;
33066;SDS011;19428;49.024;8.366;2022-08-05T12:28:59;0.40;;;0.40;;
33066;SDS011;19428;49.024;8.366;2022-08-05T12:31:25;0.82;;;0.82;;
33066;SDS011;19428;49.024;8.366;2022-08-05T12:33:50;0.90;;;0.90;;
33066;SDS011;19428;49.024;8.366;2022-08-05T12:36:18;0.50;;;0.50;;
33066;SDS011;19428;49.024;8.366;2022-08-05T12:38:44;0.45;;;0.45;;
33066;SDS011;19428;49.024;8.366;2022-08-05T12:41:10;0.40;;;0.40;;
33066;SDS011;19428;49.024;8.366;2022-08-05T12:43:53;0.50;;;0.50;;
33066;SDS011;19428;49.024;8.366;2022-08-05T12:46:21;0.57;;;0.57;;
33066;SDS011;19428;49.024;8.366;2022-08-05T12:48:55;0.60;;;0.60;;
33066;SDS011;19428;49.024;8.366;2022-08-05T12:51:29;0.60;;;0.60;;
33066;SDS011;19428;49.024;8.366;2022-08-05T12:54:02;0.60;;;0.60;;
33066;SDS011;19428;49.024;8.366;2022-08-05T12:56:29;0.40;;;0.40;;
33066;SDS011;19428;49.024;8.366;2022-08-05T13:01:41;9.20;;;1.30;;
33066;SDS011;19428;49.024;8.366;2022-08-05T13:04:08;0.50;;;0.50;;
33066;SDS011;19428;49.024;8.366;2022-08-05T13:06:39;0.60;;;0.60;;
33066;SDS011;19428;49.024;8.366;2022-08-05T13:09:06;0.98;;;0.98;;
33066;SDS011;19428;49.024;8.366;2022-08-05T13:11:36;0.80;;;0.80;;
33066;SDS011;19428;49.024;8.366;2022-08-05T13:14:14;0.50;;;0.50;;
33066;SDS011;19428;49.024;8.366;2022-08-05T13:16:50;0.70;;;0.70;;
33066;SDS011;19428;49.024;8.366;2022-08-05T13:19:22;0.70;;;0.70;;
33066;SDS011;19428;49.024;8.366;2022-08-05T13:21:50;0.55;;;0.55;;
33066;SDS011;19428;49.024;8.366;2022-08-05T13:24:16;0.60;;;0.60;;
33066;SDS011;19428;49.024;8.366;2022-08-05T13:26:45;0.77;;;0.77;;
33066;SDS011;19428;49.024;8.366;2022-08-05T13:29:12;0.80;;;0.80;;
33066;SDS011;19428;49.024;8.366;2022-08-05T13:31:37;0.63;;;0.63;;
33066;SDS011;19428;49.024;8.366;2022-08-05T13:34:03;1.00;;;1.00;;
33066;SDS011;19428;49.024;8.366;2022-08-05T13:36:29;0.95;;;0.95;;
33066;SDS011;19428;49.024;8.366;2022-08-05T13:38:55;1.20;;;1.20;;
33066;SDS011;19428;49.024;8.366;2022-08-05T13:41:21;1.10;;;1.10;;
33066;SDS011;19428;49.024;8.366;2022-08-05T13:43:46;1.58;;;1.58;;
33066;SDS011;19428;49.024;8.366;2022-08-05T13:46:12;1.50;;;1.50;;
33066;SDS011;19428;49.024;8.366;2022-08-05T13:48:38;1.50;;;1.50;;
33066;SDS011;19428;49.024;8.366;2022-08-05T13:51:05;1.30;;;1.30;;
33066;SDS011;19428;49.024;8.366;2022-08-05T13:53:34;1.40;;;1.40;;
33066;SDS011;19428;49.024;8.366;2022-08-05T13:56:00;1.80;;;1.80;;
33066;SDS011;19428;49.024;8.366;2022-08-05T13:58:27;1.65;;;1.63;;
33066;SDS011;19428;49.024;8.366;2022-08-05T14:00:52;1.38;;;1.38;;
33066;SDS011;19428;49.024;8.366;2022-08-05T14:03:19;1.65;;;1.65;;
33066;SDS011;19428;49.024;8.366;2022-08-05T14:05:45;1.45;;;1.45;;
33066;SDS011;19428;49.024;8.366;2022-08-05T14:08:11;1.63;;;1.63;;
33066;SDS011;19428;49.024;8.366;2022-08-05T14:10:37;1.30;;;1.30;;
33066;SDS011;19428;49.024;8.366;2022-08-05T14:13:03;1.23;;;1.23;;
33066;SDS011;19428;49.024;8.366;2022-08-05T14:15:31;1.17;;;1.17;;
33066;SDS011;19428;49.024;8.366;2022-08-05T14:17:57;1.38;;;1.38;;
33066;SDS011;19428;49.024;8.366;2022-08-05T14:20:22;1.30;;;1.30;;
33066;SDS011;19428;49.024;8.366;2022-08-05T14:22:48;1.48;;;1.48;;
33066;SDS011;19428;49.024;8.366;2022-08-05T14:25:14;2.15;;;2.15;;
33066;SDS011;19428;49.024;8.366;2022-08-05T14:27:41;1.58;;;1.58;;
33066;SDS011;19428;49.024;8.366;2022-08-05T14:30:06;1.30;;;1.30;;
33066;SDS011;19428;49.024;8.366;2022-08-05T14:32:32;1.48;;;1.48;;
33066;SDS011;19428;49.024;8.366;2022-08-05T14:34:58;1.50;;;1.50;;
33066;SDS011;19428;49.024;8.366;2022-08-05T14:37:23;1.30;;;1.30;;
33066;SDS011;19428;49.024;8.366;2022-08-05T14:39:49;1.80;;;1.80;;
33066;SDS011;19428;49.024;8.366;2022-08-05T14:42:15;1.27;;;1.27;;
33066;SDS011;19428;49.024;8.366;2022-08-05T14:44:40;1.10;;;1.10;;
33066;SDS011;19428;49.024;8.366;2022-08-05T14:47:06;1.23;;;1.23;;
33066;SDS011;19428;49.024;8.366;2022-08-05T14:49:31;1.33;;;1.27;;
33066;SDS011;19428;49.024;8.366;2022-08-05T14:51:57;1.10;;;1.10;;
33066;SDS011;19428;49.024;8.366;2022-08-05T14:54:22;1.42;;;1.42;;
33066;SDS011;19428;49.024;8.366;2022-08-05T14:56:48;1.23;;;1.23;;
33066;SDS011;19428;49.024;8.366;2022-08-05T14:59:14;1.50;;;1.50;;
33066;SDS011;19428;49.024;8.366;2022-08-05T15:01:40;1.85;;;1.85;;
33066;SDS011;19428;49.024;8.366;2022-08-05T15:04:05;2.15;;;2.15;;
33066;SDS011;19428;49.024;8.366;2022-08-05T15:06:34;2.22;;;2.22;;
33066;SDS011;19428;49.024;8.366;2022-08-05T15:09:00;2.08;;;2.08;;
33066;SDS011;19428;49.024;8.366;2022-08-05T15:11:25;2.20;;;2.20;;
33066;SDS011;19428;49.024;8.366;2022-08-05T15:13:51;2.13;;;2.13;;
33066;SDS011;19428;49.024;8.366;2022-08-05T15:16:17;2.20;;;2.20;;
33066;SDS011;19428;49.024;8.366;2022-08-05T15:18:42;2.42;;;2.42;;
33066;SDS011;19428;49.024;8.366;2022-08-05T15:21:08;2.35;;;2.35;;
33066;SDS011;19428;49.024;8.366;2022-08-05T15:23:34;2.40;;;2.40;;
33066;SDS011;19428;49.024;8.366;2022-08-05T15:25:59;2.30;;;2.30;;
33066;SDS011;19428;49.024;8.366;2022-08-05T15:28:25;2.28;;;2.28;;
33066;SDS011;19428;49.024;8.366;2022-08-05T15:30:50;2.40;;;2.40;;
33066;SDS011;19428;49.024;8.366;2022-08-05T15:33:16;2.50;;;2.50;;
33066;SDS011;19428;49.024;8.366;2022-08-05T15:35:41;2.10;;;2.10;;